sensor_id;sensor_type;location;lat;lon;timestamp;temperature;humidity
1694;DHT22;844;47.058;15.472;2022-07-29T00:01:52;21.90;99.90
1694;DHT22;844;47.058;15.472;2022-07-29T00:04:24;21.90;99.90
1694;DHT22;844;47.058;15.472;2022-07-29T00:06:55;21.90;99.90
1694;DHT22;844;47.058;15.472;2022-07-29T00:09:26;21.90;99.90
1694;DHT22;844;47.058;15.472;2022-07-29T00:11:58;21.90;99.90
1694;DHT22;844;47.058;15.472;2022-07-29T00:14:29;21.80;99.90
1694;DHT22;844;47.058;15.472;2022-07-29T00:16:58;21.90;99.90
1694;DHT22;844;47.058;15.472;2022-07-29T00:19:27;21.80;99.90
1694;DHT22;844;47.058;15.472;2022-07-29T00:21:59;21.90;99.90
1694;DHT22;844;47.058;15.472;2022-07-29T00:24:34;21.90;99.90
1694;DHT22;844;47.058;15.472;2022-07-29T00:27:03;21.90;99.90
1694;DHT22;844;47.058;15.472;2022-07-29T00:29:35;21.80;99.90
1694;DHT22;844;47.058;15.472;2022-07-29T00:32:05;21.80;99.90
1694;DHT22;844;47.058;15.472;2022-07-29T00:34:37;21.80;99.90
1694;DHT22;844;47.058;15.472;2022-07-29T00:37:24;21.80;99.90
1694;DHT22;844;47.058;15.472;2022-07-29T00:39:56;21.80;99.90
1694;DHT22;844;47.058;15.472;2022-07-29T00:42:27;21.80;99.90
1694;DHT22;844;47.058;15.472;2022-07-29T00:45:02;21.90;99.90
1694;DHT22;844;47.058;15.472;2022-07-29T00:47:32;21.80;99.90
1694;DHT22;844;47.058;15.472;2022-07-29T00:50:05;21.80;99.90
1694;DHT22;844;47.058;15.472;2022-07-29T00:52:37;21.90;99.90
1694;DHT22;844;47.058;15.472;2022-07-29T00:55:11;21.80;99.90
1694;DHT22;844;47.058;15.472;2022-07-29T00:57:42;21.80;99.90
1694;DHT22;844;47.058;15.472;2022-07-29T01:00:14;21.80;99.90
1694;DHT22;844;47.058;15.472;2022-07-29T01:02:46;21.70;99.90
1694;DHT22;844;47.058;15.472;2022-07-29T01:05:18;21.70;99.90
1694;DHT22;844;47.058;15.472;2022-07-29T01:07:49;21.80;99.90
1694;DHT22;844;47.058;15.472;2022-07-29T01:10:26;21.80;99.90
1694;DHT22;844;47.058;15.472;2022-07-29T01:12:59;21.80;99.90
1694;DHT22;844;47.058;15.472;2022-07-29T01:15:42;21.80;99.90
1694;DHT22;844;47.058;15.472;2022-07-29T01:18:20;21.80;99.90
1694;DHT22;844;47.058;15.472;2022-07-29T01:21:21;21.70;99.90
1694;DHT22;844;47.058;15.472;2022-07-29T01:24:33;21.70;99.90
1694;DHT22;844;47.058;15.472;2022-07-29T01:27:26;21.70;99.90
1694;DHT22;844;47.058;15.472;2022-07-29T01:30:07;21.70;99.90
1694;DHT22;844;47.058;15.472;2022-07-29T01:32:39;21.70;99.90
1694;DHT22;844;47.058;15.472;2022-07-29T01:35:16;21.70;99.90
1694;DHT22;844;47.058;15.472;2022-07-29T01:37:52;21.60;99.90
1694;DHT22;844;47.058;15.472;2022-07-29T01:40:29;21.70;99.90
1694;DHT22;844;47.058;15.472;2022-07-29T01:43:08;21.70;99.90
1694;DHT22;844;47.058;15.472;2022-07-29T01:45:46;21.70;99.90
1694;DHT22;844;47.058;15.472;2022-07-29T01:48:23;21.60;99.90
1694;DHT22;844;47.058;15.472;2022-07-29T01:51:02;21.60;99.90
1694;DHT22;844;47.058;15.472;2022-07-29T01:53:41;21.60;99.90
1694;DHT22;844;47.058;15.472;2022-07-29T01:56:13;21.50;99.90
1694;DHT22;844;47.058;15.472;2022-07-29T01:58:44;21.50;99.90
1694;DHT22;844;47.058;15.472;2022-07-29T02:01:17;21.50;99.90
1694;DHT22;844;47.058;15.472;2022-07-29T02:03:48;21.50;99.90
1694;DHT22;844;47.058;15.472;2022-07-29T02:06:21;21.40;99.90
1694;DHT22;844;47.058;15.472;2022-07-29T02:08:52;21.40;99.90
1694;DHT22;844;47.058;15.472;2022-07-29T02:11:22;21.40;99.90
1694;DHT22;844;47.058;15.472;2022-07-29T02:13:55;21.40;99.90
1694;DHT22;844;47.058;15.472;2022-07-29T02:16:29;21.40;99.90
1694;DHT22;844;47.058;15.472;2022-07-29T02:19:01;21.30;99.90
1694;DHT22;844;47.058;15.472;2022-07-29T02:21:33;21.30;99.90
1694;DHT22;844;47.058;15.472;2022-07-29T02:24:05;21.30;99.90
1694;DHT22;844;47.058;15.472;2022-07-29T02:26:35;21.30;99.90
1694;DHT22;844;47.058;15.472;2022-07-29T02:29:06;21.30;99.90
1694;DHT22;844;47.058;15.472;2022-07-29T02:31:39;21.20;99.90
1694;DHT22;844;47.058;15.472;2022-07-29T02:34:11;21.10;99.90
1694;DHT22;844;47.058;15.472;2022-07-29T02:36:46;21.10;99.90
1694;DHT22;844;47.058;15.472;2022-07-29T02:39:17;21.10;99.90
1694;DHT22;844;47.058;15.472;2022-07-29T02:41:50;21.10;99.90
1694;DHT22;844;47.058;15.472;2022-07-29T02:44:24;21.20;99.90
1694;DHT22;844;47.058;15.472;2022-07-29T02:47:09;21.20;99.90
1694;DHT22;844;47.058;15.472;2022-07-29T02:49:45;21.10;99.90
1694;DHT22;844;47.058;15.472;2022-07-29T02:52:21;21.00;99.90
1694;DHT22;844;47.058;15.472;2022-07-29T02:54:56;20.90;99.90
1694;DHT22;844;47.058;15.472;2022-07-29T02:57:31;20.80;99.90
1694;DHT22;844;47.058;15.472;2022-07-29T03:00:22;20.90;99.90
1694;DHT22;844;47.058;15.472;2022-07-29T03:02:56;20.80;99.90
1694;DHT22;844;47.058;15.472;2022-07-29T03:05:27;20.90;99.90
1694;DHT22;844;47.058;15.472;2022-07-29T03:08:00;21.00;99.90
1694;DHT22;844;47.058;15.472;2022-07-29T03:10:35;21.00;99.90
1694;DHT22;844;47.058;15.472;2022-07-29T03:13:07;20.90;99.90
1694;DHT22;844;47.058;15.472;2022-07-29T03:15:41;20.80;99.90
1694;DHT22;844;47.058;15.472;2022-07-29T03:18:15;20.80;99.90
1694;DHT22;844;47.058;15.472;2022-07-29T03:20:45;20.70;99.90
1694;DHT22;844;47.058;15.472;2022-07-29T03:23:18;20.70;99.90
1694;DHT22;844;47.058;15.472;2022-07-29T03:25:50;20.60;99.90
1694;DHT22;844;47.058;15.472;2022-07-29T03:28:21;20.60;99.90
1694;DHT22;844;47.058;15.472;2022-07-29T03:30:54;20.70;99.90
1694;DHT22;844;47.058;15.472;2022-07-29T03:33:30;20.70;99.90
1694;DHT22;844;47.058;15.472;2022-07-29T03:35:59;20.70;99.90
1694;DHT22;844;47.058;15.472;2022-07-29T03:38:30;20.80;99.90
1694;DHT22;844;47.058;15.472;2022-07-29T03:41:07;20.80;99.90
1694;DHT22;844;47.058;15.472;2022-07-29T03:43:39;20.80;99.90
1694;DHT22;844;47.058;15.472;2022-07-29T03:46:17;20.80;99.90
1694;DHT22;844;47.058;15.472;2022-07-29T03:48:52;20.70;99.90
1694;DHT22;844;47.058;15.472;2022-07-29T03:51:25;20.70;99.90
1694;DHT22;844;47.058;15.472;2022-07-29T03:54:01;20.70;99.90
1694;DHT22;844;47.058;15.472;2022-07-29T03:56:39;20.80;99.90
1694;DHT22;844;47.058;15.472;2022-07-29T03:59:10;20.60;99.90
1694;DHT22;844;47.058;15.472;2022-07-29T04:01:41;20.50;99.90
1694;DHT22;844;47.058;15.472;2022-07-29T04:04:13;20.60;99.90
1694;DHT22;844;47.058;15.472;2022-07-29T04:06:45;20.70;99.90
1694;DHT22;844;47.058;15.472;2022-07-29T04:09:15;20.60;99.90
1694;DHT22;844;47.058;15.472;2022-07-29T04:11:46;20.60;99.90
1694;DHT22;844;47.058;15.472;2022-07-29T04:14:30;20.50;99.90
1694;DHT22;844;47.058;15.472;2022-07-29T04:17:00;20.50;99.90
1694;DHT22;844;47.058;15.472;2022-07-29T04:19:32;20.60;99.90
1694;DHT22;844;47.058;15.472;2022-07-29T04:22:02;20.60;99.90
1694;DHT22;844;47.058;15.472;2022-07-29T04:24:31;20.60;99.90
1694;DHT22;844;47.058;15.472;2022-07-29T04:27:01;20.60;99.90
1694;DHT22;844;47.058;15.472;2022-07-29T04:29:30;20.50;99.90
1694;DHT22;844;47.058;15.472;2022-07-29T04:32:00;20.40;99.90
1694;DHT22;844;47.058;15.472;2022-07-29T04:34:30;20.50;99.90
1694;DHT22;844;47.058;15.472;2022-07-29T04:37:00;20.60;99.90
1694;DHT22;844;47.058;15.472;2022-07-29T04:39:31;20.60;99.90
1694;DHT22;844;47.058;15.472;2022-07-29T04:42:00;20.60;99.90
1694;DHT22;844;47.058;15.472;2022-07-29T04:44:29;20.70;99.90
1694;DHT22;844;47.058;15.472;2022-07-29T04:47:03;20.70;99.90
1694;DHT22;844;47.058;15.472;2022-07-29T04:49:39;20.80;99.90
1694;DHT22;844;47.058;15.472;2022-07-29T04:52:08;20.80;99.90
1694;DHT22;844;47.058;15.472;2022-07-29T04:54:37;20.80;99.90
1694;DHT22;844;47.058;15.472;2022-07-29T04:57:06;20.80;99.90
1694;DHT22;844;47.058;15.472;2022-07-29T04:59:36;20.80;99.90
1694;DHT22;844;47.058;15.472;2022-07-29T05:02:05;20.90;99.90
1694;DHT22;844;47.058;15.472;2022-07-29T05:04:34;20.90;99.90
1694;DHT22;844;47.058;15.472;2022-07-29T05:07:06;20.80;99.90
1694;DHT22;844;47.058;15.472;2022-07-29T05:09:35;20.90;99.90
1694;DHT22;844;47.058;15.472;2022-07-29T05:12:05;21.00;99.90
1694;DHT22;844;47.058;15.472;2022-07-29T05:14:35;21.00;99.90
1694;DHT22;844;47.058;15.472;2022-07-29T05:17:04;21.00;99.90
1694;DHT22;844;47.058;15.472;2022-07-29T05:19:34;20.90;99.90
1694;DHT22;844;47.058;15.472;2022-07-29T05:22:07;20.90;99.90
1694;DHT22;844;47.058;15.472;2022-07-29T05:24:36;21.00;99.90
1694;DHT22;844;47.058;15.472;2022-07-29T05:27:06;21.00;99.90
1694;DHT22;844;47.058;15.472;2022-07-29T05:29:35;21.10;99.90
1694;DHT22;844;47.058;15.472;2022-07-29T05:32:12;21.00;99.90
1694;DHT22;844;47.058;15.472;2022-07-29T05:34:41;21.00;99.90
1694;DHT22;844;47.058;15.472;2022-07-29T05:37:19;21.00;99.90
1694;DHT22;844;47.058;15.472;2022-07-29T05:39:49;21.00;99.90
1694;DHT22;844;47.058;15.472;2022-07-29T05:42:23;21.10;99.90
1694;DHT22;844;47.058;15.472;2022-07-29T05:44:53;21.10;99.90
1694;DHT22;844;47.058;15.472;2022-07-29T05:47:25;21.20;99.90
1694;DHT22;844;47.058;15.472;2022-07-29T05:49:54;21.20;99.90
1694;DHT22;844;47.058;15.472;2022-07-29T05:52:25;21.20;99.90
1694;DHT22;844;47.058;15.472;2022-07-29T05:54:54;21.20;99.90
1694;DHT22;844;47.058;15.472;2022-07-29T05:57:25;21.30;99.90
1694;DHT22;844;47.058;15.472;2022-07-29T05:59:54;21.30;99.90
1694;DHT22;844;47.058;15.472;2022-07-29T06:02:23;21.40;99.90
1694;DHT22;844;47.058;15.472;2022-07-29T06:04:52;21.40;99.90
1694;DHT22;844;47.058;15.472;2022-07-29T06:07:21;21.40;99.90
1694;DHT22;844;47.058;15.472;2022-07-29T06:09:52;21.40;99.90
1694;DHT22;844;47.058;15.472;2022-07-29T06:12:22;21.40;99.90
1694;DHT22;844;47.058;15.472;2022-07-29T06:14:51;21.50;99.90
1694;DHT22;844;47.058;15.472;2022-07-29T06:17:24;21.50;99.90
1694;DHT22;844;47.058;15.472;2022-07-29T06:19:54;21.60;99.90
1694;DHT22;844;47.058;15.472;2022-07-29T06:22:23;21.60;99.90
1694;DHT22;844;47.058;15.472;2022-07-29T06:24:54;21.60;99.90
1694;DHT22;844;47.058;15.472;2022-07-29T06:27:25;21.60;99.90
1694;DHT22;844;47.058;15.472;2022-07-29T06:29:56;21.70;99.90
1694;DHT22;844;47.058;15.472;2022-07-29T06:32:28;21.70;99.90
1694;DHT22;844;47.058;15.472;2022-07-29T06:34:58;21.70;99.90
1694;DHT22;844;47.058;15.472;2022-07-29T06:37:48;21.70;99.90
1694;DHT22;844;47.058;15.472;2022-07-29T06:40:23;21.70;99.90
1694;DHT22;844;47.058;15.472;2022-07-29T06:43:09;21.80;99.90
1694;DHT22;844;47.058;15.472;2022-07-29T06:45:38;21.80;99.90
1694;DHT22;844;47.058;15.472;2022-07-29T06:48:09;21.90;99.90
1694;DHT22;844;47.058;15.472;2022-07-29T06:50:38;21.90;99.90
1694;DHT22;844;47.058;15.472;2022-07-29T06:53:08;22.00;99.90
1694;DHT22;844;47.058;15.472;2022-07-29T06:55:39;22.00;99.90
1694;DHT22;844;47.058;15.472;2022-07-29T06:58:08;22.00;99.90
1694;DHT22;844;47.058;15.472;2022-07-29T07:00:38;22.10;99.90
1694;DHT22;844;47.058;15.472;2022-07-29T07:03:08;22.10;99.90
1694;DHT22;844;47.058;15.472;2022-07-29T07:05:37;22.20;99.90
1694;DHT22;844;47.058;15.472;2022-07-29T07:08:06;22.30;99.90
1694;DHT22;844;47.058;15.472;2022-07-29T07:10:36;22.40;99.90
1694;DHT22;844;47.058;15.472;2022-07-29T07:13:07;22.40;99.90
1694;DHT22;844;47.058;15.472;2022-07-29T07:15:37;22.50;99.90
1694;DHT22;844;47.058;15.472;2022-07-29T07:18:07;22.50;99.90
1694;DHT22;844;47.058;15.472;2022-07-29T07:20:36;22.60;99.90
1694;DHT22;844;47.058;15.472;2022-07-29T07:23:05;22.70;99.90
1694;DHT22;844;47.058;15.472;2022-07-29T07:25:35;22.90;99.90
1694;DHT22;844;47.058;15.472;2022-07-29T07:28:06;23.00;99.90
1694;DHT22;844;47.058;15.472;2022-07-29T07:30:36;23.10;99.90
1694;DHT22;844;47.058;15.472;2022-07-29T07:33:05;23.10;99.90
1694;DHT22;844;47.058;15.472;2022-07-29T07:35:35;23.20;99.90
1694;DHT22;844;47.058;15.472;2022-07-29T07:38:04;23.20;99.90
1694;DHT22;844;47.058;15.472;2022-07-29T07:40:35;23.20;99.90
1694;DHT22;844;47.058;15.472;2022-07-29T07:43:04;23.20;99.90
1694;DHT22;844;47.058;15.472;2022-07-29T07:45:35;23.30;99.90
1694;DHT22;844;47.058;15.472;2022-07-29T07:48:05;23.30;99.90
1694;DHT22;844;47.058;15.472;2022-07-29T07:50:37;23.40;99.90
1694;DHT22;844;47.058;15.472;2022-07-29T07:53:08;23.60;99.90
1694;DHT22;844;47.058;15.472;2022-07-29T07:55:40;23.70;99.90
1694;DHT22;844;47.058;15.472;2022-07-29T07:58:30;23.70;99.90
1694;DHT22;844;47.058;15.472;2022-07-29T08:01:03;23.70;99.90
1694;DHT22;844;47.058;15.472;2022-07-29T08:03:37;23.70;99.90
1694;DHT22;844;47.058;15.472;2022-07-29T08:06:07;23.80;99.90
1694;DHT22;844;47.058;15.472;2022-07-29T08:08:39;23.90;99.90
1694;DHT22;844;47.058;15.472;2022-07-29T08:11:09;23.90;99.90
1694;DHT22;844;47.058;15.472;2022-07-29T08:13:39;24.00;99.90
1694;DHT22;844;47.058;15.472;2022-07-29T08:16:10;24.10;99.90
1694;DHT22;844;47.058;15.472;2022-07-29T08:18:44;24.30;99.90
1694;DHT22;844;47.058;15.472;2022-07-29T08:21:15;24.40;99.90
1694;DHT22;844;47.058;15.472;2022-07-29T08:23:45;24.40;99.90
1694;DHT22;844;47.058;15.472;2022-07-29T08:26:27;24.50;99.90
1694;DHT22;844;47.058;15.472;2022-07-29T08:28:57;24.50;99.90
1694;DHT22;844;47.058;15.472;2022-07-29T08:31:28;24.50;99.90
1694;DHT22;844;47.058;15.472;2022-07-29T08:33:58;24.60;99.90
1694;DHT22;844;47.058;15.472;2022-07-29T08:36:28;24.80;99.90
1694;DHT22;844;47.058;15.472;2022-07-29T08:38:57;25.00;99.90
1694;DHT22;844;47.058;15.472;2022-07-29T08:41:27;25.00;99.90
1694;DHT22;844;47.058;15.472;2022-07-29T08:43:57;25.00;99.90
1694;DHT22;844;47.058;15.472;2022-07-29T08:46:26;25.20;99.90
1694;DHT22;844;47.058;15.472;2022-07-29T08:48:56;25.20;99.90
1694;DHT22;844;47.058;15.472;2022-07-29T08:51:27;25.30;99.90
1694;DHT22;844;47.058;15.472;2022-07-29T08:53:56;25.30;99.90
1694;DHT22;844;47.058;15.472;2022-07-29T08:56:26;25.20;99.90
1694;DHT22;844;47.058;15.472;2022-07-29T08:58:58;25.40;99.90
1694;DHT22;844;47.058;15.472;2022-07-29T09:01:40;25.40;99.90
1694;DHT22;844;47.058;15.472;2022-07-29T09:04:30;25.50;99.90
1694;DHT22;844;47.058;15.472;2022-07-29T09:07:36;25.70;99.90
1694;DHT22;844;47.058;15.472;2022-07-29T09:10:26;25.70;99.90
1694;DHT22;844;47.058;15.472;2022-07-29T09:13:19;25.70;99.90
1694;DHT22;844;47.058;15.472;2022-07-29T09:15:49;25.80;99.90
1694;DHT22;844;47.058;15.472;2022-07-29T09:18:38;25.80;99.90
1694;DHT22;844;47.058;15.472;2022-07-29T09:21:10;25.70;99.90
1694;DHT22;844;47.058;15.472;2022-07-29T09:24:03;25.70;99.90
1694;DHT22;844;47.058;15.472;2022-07-29T09:26:37;25.60;99.90
1694;DHT22;844;47.058;15.472;2022-07-29T09:29:09;25.60;99.90
1694;DHT22;844;47.058;15.472;2022-07-29T09:31:42;25.60;99.90
1694;DHT22;844;47.058;15.472;2022-07-29T09:34:24;25.50;99.90
1694;DHT22;844;47.058;15.472;2022-07-29T09:37:08;25.60;99.90
1694;DHT22;844;47.058;15.472;2022-07-29T09:39:39;25.70;99.90
1694;DHT22;844;47.058;15.472;2022-07-29T09:42:13;25.70;99.90
1694;DHT22;844;47.058;15.472;2022-07-29T09:44:56;25.70;99.90
1694;DHT22;844;47.058;15.472;2022-07-29T09:47:40;25.70;99.90
1694;DHT22;844;47.058;15.472;2022-07-29T09:50:16;25.80;99.90
1694;DHT22;844;47.058;15.472;2022-07-29T09:52:48;25.90;99.90
1694;DHT22;844;47.058;15.472;2022-07-29T09:55:19;25.90;99.90
1694;DHT22;844;47.058;15.472;2022-07-29T09:57:48;26.00;99.90
1694;DHT22;844;47.058;15.472;2022-07-29T10:00:19;26.10;99.90
1694;DHT22;844;47.058;15.472;2022-07-29T10:02:50;26.10;99.90
1694;DHT22;844;47.058;15.472;2022-07-29T10:05:23;26.10;99.90
1694;DHT22;844;47.058;15.472;2022-07-29T10:08:03;26.10;99.90
1694;DHT22;844;47.058;15.472;2022-07-29T10:10:34;26.10;99.90
1694;DHT22;844;47.058;15.472;2022-07-29T10:13:07;26.20;99.90
1694;DHT22;844;47.058;15.472;2022-07-29T10:15:44;26.10;99.90
1694;DHT22;844;47.058;15.472;2022-07-29T10:18:17;26.10;99.90
1694;DHT22;844;47.058;15.472;2022-07-29T10:20:54;26.10;99.90
1694;DHT22;844;47.058;15.472;2022-07-29T10:23:26;26.10;99.90
1694;DHT22;844;47.058;15.472;2022-07-29T10:26:13;26.10;99.90
1694;DHT22;844;47.058;15.472;2022-07-29T10:28:43;26.00;99.90
1694;DHT22;844;47.058;15.472;2022-07-29T10:31:19;26.00;99.90
1694;DHT22;844;47.058;15.472;2022-07-29T10:34:00;25.90;99.90
1694;DHT22;844;47.058;15.472;2022-07-29T10:36:46;25.80;99.90
1694;DHT22;844;47.058;15.472;2022-07-29T10:39:34;25.80;99.90
1694;DHT22;844;47.058;15.472;2022-07-29T10:42:18;25.80;99.90
1694;DHT22;844;47.058;15.472;2022-07-29T10:45:02;25.90;99.90
1694;DHT22;844;47.058;15.472;2022-07-29T10:47:33;25.80;99.90
1694;DHT22;844;47.058;15.472;2022-07-29T10:50:04;25.80;99.90
1694;DHT22;844;47.058;15.472;2022-07-29T10:52:57;25.80;99.90
1694;DHT22;844;47.058;15.472;2022-07-29T10:55:56;25.80;99.90
1694;DHT22;844;47.058;15.472;2022-07-29T10:58:26;25.90;99.90
1694;DHT22;844;47.058;15.472;2022-07-29T11:00:55;26.00;99.90
1694;DHT22;844;47.058;15.472;2022-07-29T11:03:43;26.10;99.90
1694;DHT22;844;47.058;15.472;2022-07-29T11:06:17;26.10;99.90
1694;DHT22;844;47.058;15.472;2022-07-29T11:09:18;26.20;99.90
1694;DHT22;844;47.058;15.472;2022-07-29T11:15:20;26.50;99.90
1694;DHT22;844;47.058;15.472;2022-07-29T11:18:07;26.60;99.90
1694;DHT22;844;47.058;15.472;2022-07-29T11:20:45;26.70;99.90
1694;DHT22;844;47.058;15.472;2022-07-29T11:23:22;26.80;99.90
1694;DHT22;844;47.058;15.472;2022-07-29T11:26:20;26.80;99.90
1694;DHT22;844;47.058;15.472;2022-07-29T11:29:00;27.00;99.90
1694;DHT22;844;47.058;15.472;2022-07-29T11:31:34;27.10;99.90
1694;DHT22;844;47.058;15.472;2022-07-29T11:34:25;27.10;99.90
1694;DHT22;844;47.058;15.472;2022-07-29T11:37:17;27.10;99.90
1694;DHT22;844;47.058;15.472;2022-07-29T11:40:16;27.20;99.90
1694;DHT22;844;47.058;15.472;2022-07-29T11:42:50;27.20;99.90
1694;DHT22;844;47.058;15.472;2022-07-29T11:45:26;27.30;99.90
1694;DHT22;844;47.058;15.472;2022-07-29T11:48:21;27.40;99.90
1694;DHT22;844;47.058;15.472;2022-07-29T11:50:56;27.40;99.90
1694;DHT22;844;47.058;15.472;2022-07-29T11:53:29;27.40;99.90
1694;DHT22;844;47.058;15.472;2022-07-29T11:56:13;27.30;99.90
1694;DHT22;844;47.058;15.472;2022-07-29T11:59:54;27.20;99.90
1694;DHT22;844;47.058;15.472;2022-07-29T12:02:42;27.20;99.90
1694;DHT22;844;47.058;15.472;2022-07-29T12:05:15;27.20;99.90
1694;DHT22;844;47.058;15.472;2022-07-29T12:08:22;27.20;99.90
1694;DHT22;844;47.058;15.472;2022-07-29T12:10:58;27.30;99.90
1694;DHT22;844;47.058;15.472;2022-07-29T12:13:39;27.30;99.90
1694;DHT22;844;47.058;15.472;2022-07-29T12:16:19;27.40;99.90
1694;DHT22;844;47.058;15.472;2022-07-29T12:18:59;27.40;99.90
1694;DHT22;844;47.058;15.472;2022-07-29T12:23:04;27.40;99.90
1694;DHT22;844;47.058;15.472;2022-07-29T12:25:17;27.40;99.90
1694;DHT22;844;47.058;15.472;2022-07-29T12:28:05;27.20;99.90
1694;DHT22;844;47.058;15.472;2022-07-29T12:30:42;27.20;99.90
1694;DHT22;844;47.058;15.472;2022-07-29T12:33:20;27.10;99.90
1694;DHT22;844;47.058;15.472;2022-07-29T12:35:57;27.10;99.90
1694;DHT22;844;47.058;15.472;2022-07-29T12:38:56;27.10;99.90
1694;DHT22;844;47.058;15.472;2022-07-29T12:41:50;27.10;99.90
1694;DHT22;844;47.058;15.472;2022-07-29T12:44:44;27.10;99.90
1694;DHT22;844;47.058;15.472;2022-07-29T12:47:20;27.10;99.90
1694;DHT22;844;47.058;15.472;2022-07-29T12:50:07;27.20;99.90
1694;DHT22;844;47.058;15.472;2022-07-29T12:52:38;27.20;99.90
1694;DHT22;844;47.058;15.472;2022-07-29T12:55:08;27.20;99.90
1694;DHT22;844;47.058;15.472;2022-07-29T12:57:45;27.30;99.90
1694;DHT22;844;47.058;15.472;2022-07-29T13:00:16;27.40;99.90
1694;DHT22;844;47.058;15.472;2022-07-29T13:02:54;27.50;99.90
1694;DHT22;844;47.058;15.472;2022-07-29T13:05:40;27.70;99.90
1694;DHT22;844;47.058;15.472;2022-07-29T13:08:19;27.70;99.90
1694;DHT22;844;47.058;15.472;2022-07-29T13:10:49;27.70;99.90
1694;DHT22;844;47.058;15.472;2022-07-29T13:13:18;27.80;99.90
1694;DHT22;844;47.058;15.472;2022-07-29T13:16:05;27.80;99.90
1694;DHT22;844;47.058;15.472;2022-07-29T13:18:36;27.80;99.90
1694;DHT22;844;47.058;15.472;2022-07-29T13:21:13;27.70;99.90
1694;DHT22;844;47.058;15.472;2022-07-29T13:23:45;27.60;99.90
1694;DHT22;844;47.058;15.472;2022-07-29T13:26:19;27.60;99.90
1694;DHT22;844;47.058;15.472;2022-07-29T13:28:48;27.60;99.90
1694;DHT22;844;47.058;15.472;2022-07-29T13:31:22;27.60;99.90
1694;DHT22;844;47.058;15.472;2022-07-29T13:33:58;27.60;99.90
1694;DHT22;844;47.058;15.472;2022-07-29T13:36:29;27.60;99.90
1694;DHT22;844;47.058;15.472;2022-07-29T13:38:58;27.60;99.90
1694;DHT22;844;47.058;15.472;2022-07-29T13:41:32;27.60;99.90
1694;DHT22;844;47.058;15.472;2022-07-29T13:44:24;27.60;99.90
1694;DHT22;844;47.058;15.472;2022-07-29T13:47:47;27.80;99.90
1694;DHT22;844;47.058;15.472;2022-07-29T13:50:28;28.00;99.90
1694;DHT22;844;47.058;15.472;2022-07-29T14:00:42;28.00;99.90
1694;DHT22;844;47.058;15.472;2022-07-29T14:04:09;28.10;99.90
1694;DHT22;844;47.058;15.472;2022-07-29T14:06:55;28.10;99.90
1694;DHT22;844;47.058;15.472;2022-07-29T14:09:34;28.20;99.90
1694;DHT22;844;47.058;15.472;2022-07-29T14:12:22;28.10;99.90
1694;DHT22;844;47.058;15.472;2022-07-29T14:14:59;28.00;99.90
1694;DHT22;844;47.058;15.472;2022-07-29T14:17:35;28.10;99.90
1694;DHT22;844;47.058;15.472;2022-07-29T14:20:13;28.10;99.90
1694;DHT22;844;47.058;15.472;2022-07-29T14:23:06;28.30;99.90
1694;DHT22;844;47.058;15.472;2022-07-29T14:26:11;28.70;99.90
1694;DHT22;844;47.058;15.472;2022-07-29T14:29:05;29.10;99.90
1694;DHT22;844;47.058;15.472;2022-07-29T14:31:36;29.40;99.90
1694;DHT22;844;47.058;15.472;2022-07-29T14:34:09;29.70;99.90
1694;DHT22;844;47.058;15.472;2022-07-29T14:36:41;29.90;99.90
1694;DHT22;844;47.058;15.472;2022-07-29T14:39:14;30.00;99.90
1694;DHT22;844;47.058;15.472;2022-07-29T14:41:45;29.80;99.90
1694;DHT22;844;47.058;15.472;2022-07-29T14:44:17;29.70;99.90
1694;DHT22;844;47.058;15.472;2022-07-29T14:46:46;29.70;99.90
1694;DHT22;844;47.058;15.472;2022-07-29T14:49:16;29.60;99.90
1694;DHT22;844;47.058;15.472;2022-07-29T14:51:52;29.60;99.90
1694;DHT22;844;47.058;15.472;2022-07-29T14:54:21;29.60;99.90
1694;DHT22;844;47.058;15.472;2022-07-29T14:56:52;29.60;99.90
1694;DHT22;844;47.058;15.472;2022-07-29T14:59:27;29.50;99.90
1694;DHT22;844;47.058;15.472;2022-07-29T15:02:22;29.40;99.90
1694;DHT22;844;47.058;15.472;2022-07-29T15:05:15;29.30;99.90
1694;DHT22;844;47.058;15.472;2022-07-29T15:07:52;29.30;99.90
1694;DHT22;844;47.058;15.472;2022-07-29T15:10:29;29.40;99.90
1694;DHT22;844;47.058;15.472;2022-07-29T15:13:28;29.40;99.90
1694;DHT22;844;47.058;15.472;2022-07-29T15:15:57;29.40;99.90
1694;DHT22;844;47.058;15.472;2022-07-29T15:18:27;29.40;99.90
1694;DHT22;844;47.058;15.472;2022-07-29T15:21:02;29.40;99.90
1694;DHT22;844;47.058;15.472;2022-07-29T15:23:31;29.40;99.90
1694;DHT22;844;47.058;15.472;2022-07-29T15:26:04;29.30;99.90
1694;DHT22;844;47.058;15.472;2022-07-29T15:28:34;29.30;99.90
1694;DHT22;844;47.058;15.472;2022-07-29T15:31:06;29.30;99.90
1694;DHT22;844;47.058;15.472;2022-07-29T15:33:36;29.30;99.90
1694;DHT22;844;47.058;15.472;2022-07-29T15:36:06;29.20;99.90
1694;DHT22;844;47.058;15.472;2022-07-29T15:38:37;29.20;99.90
1694;DHT22;844;47.058;15.472;2022-07-29T15:41:13;29.20;99.90
1694;DHT22;844;47.058;15.472;2022-07-29T15:43:46;29.10;99.90
1694;DHT22;844;47.058;15.472;2022-07-29T15:46:23;29.10;99.90
1694;DHT22;844;47.058;15.472;2022-07-29T15:49:11;29.00;99.90
1694;DHT22;844;47.058;15.472;2022-07-29T15:51:49;29.20;99.90
1694;DHT22;844;47.058;15.472;2022-07-29T15:54:23;29.20;99.90
1694;DHT22;844;47.058;15.472;2022-07-29T15:56:53;29.20;99.90
1694;DHT22;844;47.058;15.472;2022-07-29T15:59:27;29.20;99.90
1694;DHT22;844;47.058;15.472;2022-07-29T16:01:59;29.20;99.90
1694;DHT22;844;47.058;15.472;2022-07-29T16:04:31;29.10;99.90
1694;DHT22;844;47.058;15.472;2022-07-29T16:07:05;28.90;99.90
1694;DHT22;844;47.058;15.472;2022-07-29T16:09:43;28.90;99.90
1694;DHT22;844;47.058;15.472;2022-07-29T16:12:30;28.90;99.90
1694;DHT22;844;47.058;15.472;2022-07-29T16:15:14;28.80;99.90
1694;DHT22;844;47.058;15.472;2022-07-29T16:18:16;28.80;99.90
1694;DHT22;844;47.058;15.472;2022-07-29T16:20:50;28.70;99.90
1694;DHT22;844;47.058;15.472;2022-07-29T16:23:59;28.70;99.90
1694;DHT22;844;47.058;15.472;2022-07-29T16:26:29;28.70;99.90
1694;DHT22;844;47.058;15.472;2022-07-29T16:29:13;28.60;99.90
1694;DHT22;844;47.058;15.472;2022-07-29T16:32:12;28.60;99.90
1694;DHT22;844;47.058;15.472;2022-07-29T16:34:51;28.40;99.90
1694;DHT22;844;47.058;15.472;2022-07-29T16:37:22;28.30;99.90
1694;DHT22;844;47.058;15.472;2022-07-29T16:40:01;28.30;99.90
1694;DHT22;844;47.058;15.472;2022-07-29T16:43:38;28.30;99.90
1694;DHT22;844;47.058;15.472;2022-07-29T16:46:26;28.20;99.90
1694;DHT22;844;47.058;15.472;2022-07-29T16:49:04;28.20;99.90
1694;DHT22;844;47.058;15.472;2022-07-29T16:51:34;28.10;99.90
1694;DHT22;844;47.058;15.472;2022-07-29T16:54:03;28.10;99.90
1694;DHT22;844;47.058;15.472;2022-07-29T16:56:33;28.10;99.90
1694;DHT22;844;47.058;15.472;2022-07-29T16:59:02;28.00;99.90
1694;DHT22;844;47.058;15.472;2022-07-29T17:01:37;27.90;99.90
1694;DHT22;844;47.058;15.472;2022-07-29T17:04:10;27.80;99.90
1694;DHT22;844;47.058;15.472;2022-07-29T17:06:47;27.80;99.90
1694;DHT22;844;47.058;15.472;2022-07-29T17:09:19;27.70;99.90
1694;DHT22;844;47.058;15.472;2022-07-29T17:11:58;27.80;99.90